createdAt,value
2023-04-29T00:01:07.466Z,11.28
2023-04-29T00:03:36.055Z,11.27
2023-04-29T00:06:04.435Z,11.19
2023-04-29T00:08:32.639Z,11.28
2023-04-29T00:11:00.792Z,11.38
2023-04-29T00:13:28.894Z,11.45
2023-04-29T00:15:58.631Z,11.39
2023-04-29T00:18:26.746Z,11.14
2023-04-29T00:20:54.901Z,11.12
2023-04-29T00:23:23.086Z,11.18
2023-04-29T00:25:53.595Z,11.07
2023-04-29T00:28:21.898Z,11.15
2023-04-29T00:30:50.138Z,11.23
2023-04-29T00:33:19.714Z,11.11
2023-04-29T00:35:48.320Z,11.03
2023-04-29T00:38:16.585Z,10.93
2023-04-29T00:40:44.939Z,10.32
2023-04-29T00:43:13.264Z,10.28
2023-04-29T00:45:41.524Z,11.05
2023-04-29T00:48:09.837Z,11.01
2023-04-29T00:50:39.482Z,10.31
2023-04-29T00:53:08.212Z,10.87
2023-04-29T00:55:38.457Z,10.86
2023-04-29T00:58:06.705Z,10.70
2023-04-29T01:00:34.990Z,10.76
2023-04-29T01:03:04.371Z,10.77
2023-04-29T01:05:33.119Z,10.69
2023-04-29T01:08:18.441Z,10.73
2023-04-29T01:10:54.476Z,10.65
2023-04-29T01:13:31.853Z,10.33
2023-04-29T01:16:03.990Z,10.67
2023-04-29T01:18:38.086Z,10.67
2023-04-29T01:21:06.370Z,10.19
2023-04-29T01:23:35.833Z,10.45
2023-04-29T01:26:05.720Z,10.47
2023-04-29T01:28:46.127Z,10.33
2023-04-29T01:31:21.701Z,9.81
2023-04-29T01:33:56.524Z,10.36
2023-04-29T01:36:35.644Z,10.17
2023-04-29T01:39:15.082Z,10.38
2023-04-29T01:41:45.759Z,10.41
2023-04-29T01:44:18.006Z,10.40
2023-04-29T01:46:51.824Z,10.40
2023-04-29T01:49:22.338Z,10.40
2023-04-29T01:51:50.758Z,10.40
2023-04-29T01:54:21.154Z,10.25
2023-04-29T01:56:49.670Z,10.38
2023-04-29T01:59:17.830Z,10.48
2023-04-29T02:01:45.923Z,10.51
2023-04-29T02:04:14.067Z,10.45
2023-04-29T02:06:42.278Z,10.41
2023-04-29T02:09:10.414Z,10.36
2023-04-29T02:11:39.990Z,10.33
2023-04-29T02:14:08.174Z,10.18
2023-04-29T02:16:36.361Z,10.33
2023-04-29T02:19:04.586Z,10.30
2023-04-29T02:21:33.015Z,10.05
2023-04-29T02:24:01.113Z,10.17
2023-04-29T02:26:29.239Z,10.08
2023-04-29T02:28:58.878Z,10.18
2023-04-29T02:31:27.021Z,10.10
2023-04-29T02:33:55.761Z,10.08
2023-04-29T02:36:24.751Z,9.95
2023-04-29T02:38:55.311Z,10.01
2023-04-29T02:41:23.748Z,10.05
2023-04-29T02:43:51.900Z,9.92
2023-04-29T02:46:21.565Z,9.96
2023-04-29T02:48:49.787Z,9.82
2023-04-29T02:51:17.999Z,9.83
2023-04-29T02:53:46.162Z,9.83
2023-04-29T02:56:14.256Z,9.85
2023-04-29T02:58:42.959Z,9.91
2023-04-29T03:01:11.355Z,9.93
2023-04-29T03:03:41.211Z,9.92
2023-04-29T03:06:09.575Z,9.83
2023-04-29T03:08:37.730Z,9.76
2023-04-29T03:11:05.934Z,9.72
2023-04-29T03:13:34.092Z,9.73
2023-04-29T03:16:02.306Z,9.76
2023-04-29T03:18:30.484Z,9.79
2023-04-29T03:21:00.196Z,9.58
2023-04-29T03:23:28.372Z,9.84
2023-04-29T03:25:56.875Z,9.72
2023-04-29T03:28:25.188Z,9.64
2023-04-29T03:30:53.357Z,9.61
2023-04-29T03:33:21.537Z,9.61
2023-04-29T03:35:49.692Z,9.63
2023-04-29T03:38:19.296Z,9.61
2023-04-29T03:40:47.449Z,9.64
2023-04-29T03:43:15.596Z,9.70
2023-04-29T03:45:43.765Z,9.60
2023-04-29T03:48:12.639Z,9.65
2023-04-29T03:50:40.795Z,9.74
2023-04-29T03:53:09.095Z,9.63
2023-04-29T03:55:38.640Z,9.65
2023-04-29T03:58:06.775Z,9.63
2023-04-29T04:00:35.036Z,9.63
2023-04-29T04:03:05.544Z,9.56
2023-04-29T04:05:34.138Z,9.55
2023-04-29T04:08:02.334Z,9.63
2023-04-29T04:10:30.533Z,9.64
2023-04-29T04:13:00.063Z,9.67
2023-04-29T04:15:28.250Z,9.23
2023-04-29T04:17:56.492Z,9.86
2023-04-29T04:20:24.640Z,9.96
2023-04-29T04:22:54.888Z,9.29
2023-04-29T04:25:23.035Z,9.96
2023-04-29T04:27:51.232Z,10.08
2023-04-29T04:30:20.920Z,10.14
2023-04-29T04:32:49.186Z,10.16
2023-04-29T04:35:17.404Z,10.33
2023-04-29T04:37:45.598Z,10.54
2023-04-29T04:40:14.835Z,10.78
2023-04-29T04:42:42.947Z,10.74
2023-04-29T04:45:12.082Z,10.78
2023-04-29T04:47:43.315Z,10.84
2023-04-29T04:50:12.024Z,10.84
2023-04-29T04:52:40.583Z,10.82
2023-04-29T04:55:09.985Z,10.86
2023-04-29T04:57:38.115Z,10.79
2023-04-29T05:00:07.584Z,10.79
2023-04-29T05:02:36.106Z,11.03
2023-04-29T05:05:06.392Z,11.18
2023-04-29T05:07:36.067Z,11.35
2023-04-29T05:10:04.898Z,11.51
2023-04-29T05:12:33.237Z,11.40
2023-04-29T05:15:01.441Z,11.85
2023-04-29T05:17:29.684Z,12.01
2023-04-29T05:19:58.061Z,12.06
2023-04-29T05:22:27.666Z,12.24
2023-04-29T05:25:02.590Z,12.28
2023-04-29T05:27:31.157Z,12.52
2023-04-29T05:29:59.368Z,12.61
2023-04-29T05:32:27.640Z,12.60
2023-04-29T05:34:55.884Z,12.19
2023-04-29T05:37:24.281Z,12.38
2023-04-29T05:39:54.093Z,12.49
2023-04-29T05:42:23.616Z,12.54
2023-04-29T05:44:52.115Z,12.56
2023-04-29T05:47:20.435Z,12.61
2023-04-29T05:49:48.668Z,12.73
2023-04-29T05:52:16.928Z,12.74
2023-04-29T05:54:45.079Z,13.03
2023-04-29T05:57:14.612Z,13.04
2023-04-29T05:59:42.842Z,11.77
2023-04-29T06:02:11.950Z,13.17
2023-04-29T06:04:41.799Z,13.29
2023-04-29T06:07:10.481Z,13.19
2023-04-29T06:09:38.782Z,13.50
2023-04-29T06:12:07.256Z,13.59
2023-04-29T06:14:36.885Z,13.73
2023-04-29T06:17:05.185Z,13.75
2023-04-29T06:19:34.181Z,13.66
2023-04-29T06:22:02.367Z,13.77
2023-04-29T06:24:30.520Z,13.87
2023-04-29T06:26:58.722Z,13.85
2023-04-29T06:29:26.869Z,13.92
2023-04-29T06:31:56.518Z,14.11
2023-04-29T06:34:24.754Z,14.12
2023-04-29T06:36:52.943Z,14.36
2023-04-29T06:39:21.190Z,14.52
2023-04-29T06:41:49.354Z,14.67
2023-04-29T06:44:19.020Z,14.77
2023-04-29T06:46:47.459Z,14.66
2023-04-29T06:49:17.248Z,14.67
2023-04-29T06:51:45.371Z,14.59
2023-04-29T06:54:13.624Z,14.84
2023-04-29T06:56:41.874Z,14.87
2023-04-29T06:59:12.311Z,14.74
2023-04-29T07:01:43.431Z,15.28
2023-04-29T07:04:13.205Z,15.38
2023-04-29T07:06:46.914Z,15.35
2023-04-29T07:09:15.434Z,15.57
2023-04-29T07:11:43.745Z,15.23
2023-04-29T07:14:11.982Z,15.67
2023-04-29T07:16:40.214Z,15.84
2023-04-29T07:19:08.454Z,15.96
2023-04-29T07:21:36.625Z,16.17
2023-04-29T07:24:07.042Z,16.21
2023-04-29T07:26:35.263Z,16.45
2023-04-29T07:29:03.437Z,16.42
2023-04-29T07:31:31.755Z,16.71
2023-04-29T07:34:00.227Z,16.78
2023-04-29T07:36:28.948Z,16.95
2023-04-29T07:38:57.125Z,16.91
2023-04-29T07:41:26.745Z,16.98
2023-04-29T07:43:54.898Z,16.99
2023-04-29T07:46:23.607Z,17.26
2023-04-29T07:48:52.055Z,17.04
2023-04-29T07:51:20.159Z,17.47
2023-04-29T07:53:48.361Z,17.63
2023-04-29T07:56:16.551Z,17.77
2023-04-29T07:58:46.149Z,18.00
2023-04-29T08:01:15.700Z,17.95
2023-04-29T08:03:44.007Z,18.47
2023-04-29T08:06:12.549Z,18.72
2023-04-29T08:08:41.231Z,18.79
2023-04-29T08:11:09.446Z,18.97
2023-04-29T08:13:37.653Z,18.82
2023-04-29T08:16:07.704Z,18.71
2023-04-29T08:18:36.835Z,18.69
2023-04-29T08:21:05.267Z,18.54
2023-04-29T08:23:34.277Z,18.49
2023-04-29T08:26:03.567Z,18.45
2023-04-29T08:28:31.746Z,18.44
2023-04-29T08:30:59.975Z,18.36
2023-04-29T08:33:29.869Z,18.29
2023-04-29T08:36:03.592Z,18.04
2023-04-29T08:38:32.113Z,17.07
2023-04-29T08:41:00.261Z,17.87
2023-04-29T08:43:28.667Z,17.92
2023-04-29T08:45:59.256Z,18.02
2023-04-29T08:48:30.570Z,18.23
2023-04-29T08:50:59.675Z,18.45
2023-04-29T08:53:28.150Z,17.99
2023-04-29T08:55:59.641Z,18.43
2023-04-29T08:58:31.387Z,18.54
2023-04-29T09:00:59.727Z,18.76
2023-04-29T09:03:36.164Z,18.44
2023-04-29T09:06:06.583Z,18.97
2023-04-29T09:08:35.360Z,18.96
2023-04-29T09:11:04.068Z,18.89
2023-04-29T09:13:33.431Z,19.26
2023-04-29T09:16:01.681Z,19.10
2023-04-29T09:18:48.799Z,19.33
2023-04-29T09:21:21.723Z,19.31
2023-04-29T09:23:52.436Z,19.22
2023-04-29T09:26:22.423Z,19.14
2023-04-29T09:29:08.160Z,19.25
2023-04-29T09:31:36.939Z,19.40
2023-04-29T09:34:06.606Z,19.81
2023-04-29T09:36:40.634Z,19.91
2023-04-29T09:39:12.640Z,19.89
2023-04-29T09:41:58.117Z,19.95
2023-04-29T09:44:28.773Z,19.96
2023-04-29T09:46:58.518Z,20.14
2023-04-29T09:49:29.519Z,20.24
2023-04-29T09:51:59.785Z,20.27
2023-04-29T09:54:30.670Z,19.57
2023-04-29T09:57:00.248Z,20.25
2023-04-29T09:59:28.467Z,20.52
2023-04-29T10:01:58.596Z,20.29
2023-04-29T10:04:29.518Z,20.88
2023-04-29T10:06:58.103Z,20.95
2023-04-29T10:09:26.320Z,21.15
2023-04-29T10:11:55.448Z,21.25
2023-04-29T10:14:25.872Z,21.27
2023-04-29T10:17:02.740Z,21.32
2023-04-29T10:19:36.678Z,21.36
2023-04-29T10:22:11.092Z,21.36
2023-04-29T10:24:40.836Z,21.30
2023-04-29T10:27:09.864Z,21.36
2023-04-29T10:29:39.980Z,21.42
2023-04-29T10:32:11.219Z,21.35
2023-04-29T10:34:40.954Z,21.40
2023-04-29T10:37:11.518Z,21.25
2023-04-29T10:39:48.692Z,21.60
2023-04-29T10:42:27.676Z,21.81
2023-04-29T10:45:21.094Z,21.99
2023-04-29T10:48:14.507Z,22.10
2023-04-29T10:51:03.671Z,22.04
2023-04-29T10:53:31.967Z,21.79
2023-04-29T10:56:06.979Z,21.79
2023-04-29T10:58:40.742Z,21.58
2023-04-29T11:01:11.618Z,21.27
2023-04-29T11:03:55.246Z,21.18
2023-04-29T11:06:27.076Z,20.89
2023-04-29T11:09:05.858Z,20.74
2023-04-29T11:12:00.695Z,20.21
2023-04-29T11:14:32.768Z,20.43
2023-04-29T11:17:02.876Z,20.21
2023-04-29T11:19:35.748Z,20.19
2023-04-29T11:22:14.346Z,20.06
2023-04-29T11:24:53.681Z,20.00
2023-04-29T11:27:25.712Z,19.44
2023-04-29T11:32:41.630Z,19.11
2023-04-29T11:41:15.782Z,20.05
2023-04-29T11:43:47.077Z,20.34
2023-04-29T11:46:16.119Z,20.38
2023-04-29T11:48:48.958Z,20.81
2023-04-29T11:51:17.917Z,20.98
2023-04-29T11:53:47.037Z,21.29
2023-04-29T11:56:16.849Z,21.55
2023-04-29T11:58:45.737Z,21.79
2023-04-29T12:01:14.004Z,21.77
2023-04-29T12:03:45.356Z,22.20
2023-04-29T12:06:15.131Z,22.05
2023-04-29T12:08:43.515Z,22.21
2023-04-29T12:11:11.740Z,22.65
2023-04-29T12:13:42.022Z,22.68
2023-04-29T12:16:10.904Z,22.72
2023-04-29T12:18:39.339Z,22.84
2023-04-29T12:21:08.052Z,22.97
2023-04-29T12:23:37.734Z,22.85
2023-04-29T12:26:06.037Z,22.71
2023-04-29T12:28:35.068Z,22.44
2023-04-29T12:31:05.109Z,22.10
2023-04-29T12:33:33.257Z,22.07
2023-04-29T12:36:02.235Z,22.25
2023-04-29T12:38:32.477Z,22.31
2023-04-29T12:41:01.906Z,22.40
2023-04-29T12:43:30.868Z,22.97
2023-04-29T12:46:03.203Z,23.08
2023-04-29T12:48:33.893Z,23.12
2023-04-29T12:51:03.261Z,22.95
2023-04-29T12:53:32.230Z,22.82
2023-04-29T12:56:00.832Z,22.73
2023-04-29T12:58:30.717Z,22.74
2023-04-29T13:00:59.409Z,22.58
2023-04-29T13:03:28.381Z,22.79
2023-04-29T13:05:59.242Z,22.62
2023-04-29T13:08:27.550Z,22.46
2023-04-29T13:10:55.724Z,22.00
2023-04-29T13:13:29.145Z,21.62
2023-04-29T13:15:57.394Z,21.37
2023-04-29T13:23:57.445Z,20.85
2023-04-29T13:26:27.360Z,20.88
2023-04-29T13:28:55.463Z,20.68
2023-04-29T13:31:23.668Z,20.88
2023-04-29T13:33:53.966Z,20.91
2023-04-29T13:36:22.417Z,20.93
2023-04-29T13:38:55.047Z,20.89
2023-04-29T13:41:26.738Z,20.74
2023-04-29T13:43:58.012Z,20.15
2023-04-29T13:46:27.479Z,20.88
2023-04-29T14:07:52.261Z,21.00
2023-04-29T14:10:22.049Z,20.82
2023-04-29T14:12:50.157Z,21.26
2023-04-29T14:15:18.421Z,21.38
2023-04-29T14:17:46.709Z,21.49
2023-04-29T14:20:15.255Z,21.43
2023-04-29T14:22:43.606Z,21.20
2023-04-29T14:25:12.520Z,21.07
2023-04-29T14:27:42.161Z,20.71
2023-04-29T14:30:11.669Z,20.53
2023-04-29T14:32:39.789Z,20.14
2023-04-29T14:37:50.595Z,18.48
2023-04-29T14:49:01.210Z,18.84
2023-04-29T14:51:29.775Z,17.95
2023-04-29T14:53:57.981Z,18.25
2023-04-29T14:56:26.216Z,19.66
2023-04-29T14:58:54.426Z,20.12
2023-04-29T15:01:22.669Z,21.47
2023-04-29T15:03:50.909Z,22.07
2023-04-29T15:06:20.699Z,23.70
2023-04-29T15:08:48.924Z,24.57
2023-04-29T15:11:17.228Z,25.16
2023-04-29T15:13:45.405Z,25.33
2023-04-29T15:16:13.747Z,25.68
2023-04-29T15:18:45.526Z,25.41
2023-04-29T15:21:14.104Z,27.03
2023-04-29T15:23:43.762Z,27.63
2023-04-29T15:26:12.034Z,28.77
2023-04-29T15:28:40.590Z,29.55
2023-04-29T15:31:08.747Z,30.20
2023-04-29T15:33:36.930Z,29.99
2023-04-29T15:36:05.543Z,28.97
2023-04-29T15:38:33.769Z,28.02
2023-04-29T15:41:04.062Z,27.77
2023-04-29T15:43:33.309Z,27.53
2023-04-29T15:46:01.564Z,26.76
2023-04-29T15:48:29.696Z,25.32
2023-04-29T15:50:57.922Z,24.06
2023-04-29T15:53:26.200Z,22.50
2023-04-29T15:55:55.175Z,22.39
2023-04-29T15:58:24.759Z,21.93
2023-04-29T16:00:52.972Z,21.61
2023-04-29T16:03:21.362Z,21.31
2023-04-29T16:11:13.924Z,18.76
2023-04-29T16:13:43.449Z,19.61
2023-04-29T16:16:11.856Z,19.08
2023-04-29T16:18:40.068Z,18.72
2023-04-29T16:21:08.851Z,17.80
2023-04-29T16:23:37.088Z,18.30
2023-04-29T16:26:05.456Z,18.05
2023-04-29T16:31:19.324Z,16.35
2023-04-29T16:33:47.730Z,17.85
2023-04-29T16:36:15.850Z,17.83
2023-04-29T16:38:44.087Z,17.74
2023-04-29T16:41:12.222Z,17.65
2023-04-29T16:43:40.376Z,17.87
2023-04-29T16:46:08.934Z,17.31
2023-04-29T16:48:38.662Z,17.73
2023-04-29T16:51:07.027Z,17.50
2023-04-29T16:53:35.288Z,17.85
2023-04-29T16:56:03.440Z,17.70
2023-04-29T16:58:31.642Z,17.70
2023-04-29T17:00:59.889Z,17.34
2023-04-29T17:03:28.178Z,17.44
2023-04-29T17:05:57.828Z,17.35
2023-04-29T17:08:26.264Z,17.35
2023-04-29T17:10:54.684Z,17.25
2023-04-29T17:13:22.858Z,17.20
2023-04-29T17:15:51.546Z,17.15
2023-04-29T17:18:20.849Z,16.94
2023-04-29T17:20:50.843Z,17.06
2023-04-29T17:23:20.902Z,16.11
2023-04-29T17:25:49.106Z,16.94
2023-04-29T17:28:17.267Z,16.95
2023-04-29T17:30:45.489Z,16.97
2023-04-29T17:33:14.265Z,16.88
2023-04-29T17:35:42.438Z,16.89
2023-04-29T17:38:12.089Z,16.89
2023-04-29T17:40:41.675Z,16.81
2023-04-29T17:43:09.886Z,16.80
2023-04-29T17:45:41.671Z,16.75
2023-04-29T17:48:10.261Z,16.52
2023-04-29T17:50:39.423Z,16.44
2023-04-29T17:53:07.591Z,16.14
2023-04-29T17:55:35.849Z,16.42
2023-04-29T17:58:05.466Z,16.39
2023-04-29T18:00:35.101Z,16.14
2023-04-29T18:03:03.507Z,16.37
2023-04-29T18:05:31.955Z,16.37
2023-04-29T18:08:00.113Z,16.53
2023-04-29T18:10:28.351Z,16.53
2023-04-29T18:12:56.732Z,16.18
2023-04-29T18:15:26.399Z,16.46
2023-04-29T18:17:54.676Z,16.44
2023-04-29T18:20:23.053Z,16.34
2023-04-29T18:22:51.515Z,16.07
2023-04-29T18:25:19.646Z,16.02
2023-04-29T18:27:48.121Z,16.15
2023-04-29T18:30:16.295Z,15.91
2023-04-29T18:32:45.874Z,15.96
2023-04-29T18:35:14.204Z,16.07
2023-04-29T18:37:42.408Z,15.81
2023-04-29T18:40:11.580Z,15.70
2023-04-29T18:42:39.876Z,15.49
2023-04-29T18:45:09.427Z,15.49
2023-04-29T18:47:37.953Z,15.46
2023-04-29T18:50:08.642Z,15.51
2023-04-29T18:52:36.941Z,15.51
2023-04-29T18:55:06.096Z,15.39
2023-04-29T18:57:34.331Z,15.30
2023-04-29T19:00:03.887Z,15.15
2023-04-29T19:02:32.057Z,15.20
2023-04-29T19:05:02.857Z,15.03
2023-04-29T19:07:32.575Z,14.94
2023-04-29T19:10:02.505Z,14.75
2023-04-29T19:12:31.112Z,14.92
2023-04-29T19:14:59.295Z,14.82
2023-04-29T19:17:27.573Z,14.91
2023-04-29T19:19:56.012Z,14.78
2023-04-29T19:22:24.413Z,14.84
2023-04-29T19:24:53.991Z,14.59
2023-04-29T19:27:22.181Z,13.91
2023-04-29T19:29:50.379Z,14.78
2023-04-29T19:32:19.861Z,14.61
2023-04-29T19:34:48.243Z,14.55
2023-04-29T19:37:16.379Z,14.41
2023-04-29T19:39:44.533Z,14.51
2023-04-29T19:42:14.165Z,14.26
2023-04-29T19:44:42.741Z,14.57
2023-04-29T19:47:11.037Z,14.53
2023-04-29T19:49:39.631Z,14.69
2023-04-29T19:52:08.313Z,14.54
2023-04-29T19:54:37.164Z,14.28
2023-04-29T19:57:05.384Z,14.62
2023-04-29T19:59:34.978Z,14.66
2023-04-29T20:02:03.251Z,14.71
2023-04-29T20:04:31.424Z,14.76
2023-04-29T20:06:59.639Z,14.86
2023-04-29T20:09:27.859Z,14.90
2023-04-29T20:11:56.420Z,14.84
2023-04-29T20:14:24.593Z,14.97
2023-04-29T20:16:54.329Z,14.76
2023-04-29T20:19:22.561Z,14.99
2023-04-29T20:21:51.122Z,14.76
2023-04-29T20:24:19.340Z,14.99
2023-04-29T20:26:47.740Z,14.99
2023-04-29T20:29:15.912Z,14.94
2023-04-29T20:31:44.176Z,14.64
2023-04-29T20:34:13.728Z,14.87
2023-04-29T20:36:41.953Z,14.80
2023-04-29T20:39:10.897Z,14.87
2023-04-29T20:41:39.056Z,14.86
2023-04-29T20:44:07.262Z,15.03
2023-04-29T20:46:35.413Z,15.04
2023-04-29T20:49:04.711Z,14.71
2023-04-29T20:51:34.210Z,14.87
2023-04-29T20:54:02.281Z,14.97
2023-04-29T20:56:30.457Z,14.86
2023-04-29T20:58:59.742Z,14.84
2023-04-29T21:01:28.119Z,14.77
2023-04-29T21:03:56.282Z,14.70
2023-04-29T21:06:27.359Z,14.82
2023-04-29T21:08:57.098Z,14.64
2023-04-29T21:11:25.218Z,14.60
2023-04-29T21:13:53.426Z,14.49
2023-04-29T21:16:21.839Z,14.44
2023-04-29T21:18:50.138Z,14.41
2023-04-29T21:21:18.178Z,14.38
2023-04-29T21:23:46.340Z,14.44
2023-04-29T21:26:16.094Z,14.39
2023-04-29T21:28:44.388Z,14.42
2023-04-29T21:31:16.351Z,14.17
2023-04-29T21:33:44.781Z,14.31
2023-04-29T21:36:12.972Z,14.33
2023-04-29T21:38:42.924Z,14.11
2023-04-29T21:41:22.715Z,13.30
2023-04-29T21:43:51.840Z,13.85
2023-04-29T21:46:21.044Z,13.69
2023-04-29T21:48:49.304Z,13.93
2023-04-29T21:51:19.159Z,13.82
2023-04-29T21:53:47.339Z,13.83
2023-04-29T21:56:15.521Z,13.80
2023-04-29T21:58:45.406Z,13.08
2023-04-29T22:01:26.710Z,13.70
2023-04-29T22:03:55.367Z,13.61
2023-04-29T22:06:24.071Z,13.75
2023-04-29T22:08:52.353Z,13.70
2023-04-29T22:11:21.666Z,13.67
2023-04-29T22:13:51.323Z,13.70
2023-04-29T22:16:19.935Z,13.68
2023-04-29T22:18:48.301Z,13.57
2023-04-29T22:21:16.508Z,13.54
2023-04-29T22:23:45.000Z,13.35
2023-04-29T22:26:13.149Z,13.43
2023-04-29T22:28:41.301Z,13.41
2023-04-29T22:31:10.909Z,13.36
2023-04-29T22:33:39.164Z,13.36
2023-04-29T22:36:07.928Z,13.33
2023-04-29T22:38:37.933Z,13.13
2023-04-29T22:41:09.715Z,13.11
2023-04-29T22:43:37.828Z,13.09
2023-04-29T22:46:06.210Z,13.09
2023-04-29T22:48:35.920Z,13.03
2023-04-29T22:51:04.105Z,13.02
2023-04-29T22:53:32.314Z,13.02
2023-04-29T22:56:01.998Z,13.02
2023-04-29T22:58:30.193Z,13.02
2023-04-29T23:00:58.860Z,12.89
2023-04-29T23:03:27.975Z,12.93
2023-04-29T23:06:01.279Z,12.88
2023-04-29T23:08:29.764Z,12.70
2023-04-29T23:10:57.942Z,12.78
2023-04-29T23:13:26.083Z,11.98
2023-04-29T23:15:57.455Z,12.81
2023-04-29T23:18:25.635Z,12.86
2023-04-29T23:20:53.845Z,12.84
2023-04-29T23:23:23.425Z,12.54
2023-04-29T23:25:51.685Z,12.74
2023-04-29T23:28:19.884Z,11.99
2023-04-29T23:30:48.490Z,12.66
2023-04-29T23:33:16.757Z,12.73
2023-04-29T23:35:50.573Z,12.42
2023-04-29T23:38:18.896Z,12.09
2023-04-29T23:40:48.693Z,12.63
2023-04-29T23:43:16.883Z,12.45
2023-04-29T23:45:46.311Z,12.28
2023-04-29T23:48:15.796Z,12.45
2023-04-29T23:50:43.947Z,12.27
2023-04-29T23:53:12.220Z,12.38
2023-04-29T23:55:40.410Z,12.47
2023-04-29T23:58:09.974Z,12.53
